sensor_id;sensor_type;location;lat;lon;timestamp;pressure;altitude;pressure_sealevel;temperature;humidity
30302;BME280;17111;52.130;5.028;2023-03-26T00:01:11;100774.28;;;18.15;50.44
30302;BME280;17111;52.130;5.028;2023-03-26T00:03:41;100785.84;;;18.15;50.09
30302;BME280;17111;52.130;5.028;2023-03-26T00:06:15;100773.44;;;18.14;50.52
30302;BME280;17111;52.130;5.028;2023-03-26T00:08:43;100782.31;;;18.15;50.14
30302;BME280;17111;52.130;5.028;2023-03-26T00:11:12;100779.63;;;18.15;49.96
30302;BME280;17111;52.130;5.028;2023-03-26T00:13:40;100780.66;;;18.14;50.14
30302;BME280;17111;52.130;5.028;2023-03-26T00:16:17;100780.94;;;18.11;50.36
30302;BME280;17111;52.130;5.028;2023-03-26T00:18:45;100786.16;;;18.12;50.02
30302;BME280;17111;52.130;5.028;2023-03-26T00:21:14;100781.78;;;18.11;50.00
30302;BME280;17111;52.130;5.028;2023-03-26T00:23:42;100773.06;;;18.09;50.02
30302;BME280;17111;52.130;5.028;2023-03-26T00:26:09;100767.72;;;18.09;50.21
30302;BME280;17111;52.130;5.028;2023-03-26T00:28:38;100754.44;;;18.08;50.13
30302;BME280;17111;52.130;5.028;2023-03-26T00:31:08;100754.59;;;18.06;50.07
30302;BME280;17111;52.130;5.028;2023-03-26T00:33:37;100753.75;;;18.06;50.17
30302;BME280;17111;52.130;5.028;2023-03-26T00:36:11;100750.25;;;18.05;49.93
30302;BME280;17111;52.130;5.028;2023-03-26T00:38:43;100747.69;;;18.04;50.08
30302;BME280;17111;52.130;5.028;2023-03-26T00:41:12;100749.53;;;18.03;50.43
30302;BME280;17111;52.130;5.028;2023-03-26T00:43:53;100746.84;;;18.03;50.14
30302;BME280;17111;52.130;5.028;2023-03-26T00:46:24;100744.34;;;18.02;50.12
30302;BME280;17111;52.130;5.028;2023-03-26T00:48:51;100743.50;;;18.01;49.76
30302;BME280;17111;52.130;5.028;2023-03-26T00:51:19;100735.59;;;17.99;50.18
30302;BME280;17111;52.130;5.028;2023-03-26T00:53:47;100734.75;;;17.99;49.99
30302;BME280;17111;52.130;5.028;2023-03-26T00:56:14;100737.44;;;17.99;50.26
30302;BME280;17111;52.130;5.028;2023-03-26T00:58:41;100733.91;;;17.98;50.13
30302;BME280;17111;52.130;5.028;2023-03-26T01:01:13;100732.25;;;17.97;50.09
30302;BME280;17111;52.130;5.028;2023-03-26T01:03:42;100732.25;;;17.97;50.04
30302;BME280;17111;52.130;5.028;2023-03-26T01:06:30;100722.34;;;17.98;50.27
30302;BME280;17111;52.130;5.028;2023-03-26T01:09:11;100718.97;;;17.96;50.24
30302;BME280;17111;52.130;5.028;2023-03-26T01:11:39;100711.09;;;17.94;49.79
30302;BME280;17111;52.130;5.028;2023-03-26T01:14:12;100708.41;;;17.94;49.98
30302;BME280;17111;52.130;5.028;2023-03-26T01:16:44;100701.38;;;17.93;50.38
30302;BME280;17111;52.130;5.028;2023-03-26T01:21:56;100699.53;;;17.94;50.51
30302;BME280;17111;52.130;5.028;2023-03-26T01:24:23;100688.81;;;17.94;49.80
30302;BME280;17111;52.130;5.028;2023-03-26T01:27:13;100684.41;;;17.93;50.19
30302;BME280;17111;52.130;5.028;2023-03-26T01:32:25;100678.91;;;17.94;50.23
30302;BME280;17111;52.130;5.028;2023-03-26T01:46:10;100661.47;;;17.90;50.19
30302;BME280;17111;52.130;5.028;2023-03-26T01:48:40;100661.47;;;17.90;49.76
30302;BME280;17111;52.130;5.028;2023-03-26T01:51:09;100664.16;;;17.90;50.10
30302;BME280;17111;52.130;5.028;2023-03-26T01:53:47;100656.94;;;17.91;50.05
30302;BME280;17111;52.130;5.028;2023-03-26T01:56:39;100662.47;;;17.89;50.35
30302;BME280;17111;52.130;5.028;2023-03-26T01:59:42;100647.34;;;17.88;50.33
30302;BME280;17111;52.130;5.028;2023-03-26T02:02:14;100650.72;;;17.90;50.16
30302;BME280;17111;52.130;5.028;2023-03-26T02:07:45;100641.03;;;17.89;50.10
30302;BME280;17111;52.130;5.028;2023-03-26T02:10:24;100641.03;;;17.89;50.10
30302;BME280;17111;52.130;5.028;2023-03-26T02:12:52;100637.47;;;17.89;49.91
30302;BME280;17111;52.130;5.028;2023-03-26T02:15:19;100624.94;;;17.89;49.96
30302;BME280;17111;52.130;5.028;2023-03-26T02:17:46;100628.44;;;17.90;50.13
30302;BME280;17111;52.130;5.028;2023-03-26T02:20:15;100618.69;;;17.89;49.95
30302;BME280;17111;52.130;5.028;2023-03-26T02:22:45;100616.88;;;17.89;49.98
30302;BME280;17111;52.130;5.028;2023-03-26T02:25:17;100620.53;;;17.88;49.92
30302;BME280;17111;52.130;5.028;2023-03-26T02:27:45;100618.69;;;17.89;49.98
30302;BME280;17111;52.130;5.028;2023-03-26T02:30:15;100607.97;;;17.89;50.21
30302;BME280;17111;52.130;5.028;2023-03-26T02:32:42;100610.66;;;17.89;50.01
30302;BME280;17111;52.130;5.028;2023-03-26T02:35:10;100607.13;;;17.88;49.75
30302;BME280;17111;52.130;5.028;2023-03-26T02:37:38;100605.28;;;17.89;50.16
30302;BME280;17111;52.130;5.028;2023-03-26T02:40:06;100600.81;;;17.89;50.14
30302;BME280;17111;52.130;5.028;2023-03-26T02:42:36;100609.81;;;17.88;50.25
30302;BME280;17111;52.130;5.028;2023-03-26T02:45:04;100599.09;;;17.88;50.22
30302;BME280;17111;52.130;5.028;2023-03-26T02:47:32;100597.41;;;17.87;50.34
30302;BME280;17111;52.130;5.028;2023-03-26T02:49:59;100598.44;;;17.86;50.54
30302;BME280;17111;52.130;5.028;2023-03-26T02:52:26;100595.03;;;17.84;50.13
30302;BME280;17111;52.130;5.028;2023-03-26T02:54:53;100600.41;;;17.84;49.71
30302;BME280;17111;52.130;5.028;2023-03-26T02:57:20;100602.25;;;17.84;49.84
30302;BME280;17111;52.130;5.028;2023-03-26T02:59:47;100598.91;;;17.82;49.96
30302;BME280;17111;52.130;5.028;2023-03-26T03:02:15;100591.84;;;17.81;50.19
30302;BME280;17111;52.130;5.028;2023-03-26T03:04:43;100591.84;;;17.81;50.24
30302;BME280;17111;52.130;5.028;2023-03-26T03:07:10;100588.31;;;17.80;50.12
30302;BME280;17111;52.130;5.028;2023-03-26T03:09:40;100587.47;;;17.80;49.96
30302;BME280;17111;52.130;5.028;2023-03-26T03:12:07;100584.81;;;17.80;49.79
30302;BME280;17111;52.130;5.028;2023-03-26T03:14:34;100578.59;;;17.79;49.98
30302;BME280;17111;52.130;5.028;2023-03-26T03:17:00;100575.94;;;17.79;49.96
30302;BME280;17111;52.130;5.028;2023-03-26T03:19:27;100572.41;;;17.79;49.77
30302;BME280;17111;52.130;5.028;2023-03-26T03:21:54;100571.56;;;17.78;49.90
30302;BME280;17111;52.130;5.028;2023-03-26T03:24:20;100574.25;;;17.78;49.99
30302;BME280;17111;52.130;5.028;2023-03-26T03:26:48;100564.53;;;17.77;50.13
30302;BME280;17111;52.130;5.028;2023-03-26T03:29:15;100574.38;;;17.76;49.85
30302;BME280;17111;52.130;5.028;2023-03-26T03:31:42;100562.84;;;17.76;49.77
30302;BME280;17111;52.130;5.028;2023-03-26T03:34:09;100562.00;;;17.75;50.15
30302;BME280;17111;52.130;5.028;2023-03-26T03:36:35;100565.69;;;17.74;50.11
30302;BME280;17111;52.130;5.028;2023-03-26T03:39:03;100560.31;;;17.74;50.11
30302;BME280;17111;52.130;5.028;2023-03-26T03:41:30;100562.13;;;17.74;49.86
30302;BME280;17111;52.130;5.028;2023-03-26T03:43:57;100556.91;;;17.72;50.22
30302;BME280;17111;52.130;5.028;2023-03-26T03:46:25;100554.22;;;17.72;49.84
30302;BME280;17111;52.130;5.028;2023-03-26T03:48:51;100551.56;;;17.72;50.14
30302;BME280;17111;52.130;5.028;2023-03-26T03:51:18;100552.56;;;17.71;49.96
30302;BME280;17111;52.130;5.028;2023-03-26T03:53:45;100551.72;;;17.71;50.24
30302;BME280;17111;52.130;5.028;2023-03-26T03:56:12;100550.88;;;17.70;49.71
30302;BME280;17111;52.130;5.028;2023-03-26T03:58:40;100545.53;;;17.70;49.95
30302;BME280;17111;52.130;5.028;2023-03-26T04:01:07;100542.00;;;17.70;49.98
30302;BME280;17111;52.130;5.028;2023-03-26T04:03:34;100532.13;;;17.70;49.79
30302;BME280;17111;52.130;5.028;2023-03-26T04:06:05;100532.13;;;17.70;49.83
30302;BME280;17111;52.130;5.028;2023-03-26T04:08:32;100533.13;;;17.69;50.07
30302;BME280;17111;52.130;5.028;2023-03-26T04:11:00;100534.97;;;17.69;49.99
30302;BME280;17111;52.130;5.028;2023-03-26T04:13:27;100533.97;;;17.70;49.63
30302;BME280;17111;52.130;5.028;2023-03-26T04:15:54;100523.38;;;17.68;50.16
30302;BME280;17111;52.130;5.028;2023-03-26T04:18:21;100523.38;;;17.68;50.01
30302;BME280;17111;52.130;5.028;2023-03-26T04:20:48;100517.19;;;17.68;49.98
30302;BME280;17111;52.130;5.028;2023-03-26T04:23:17;100522.53;;;17.68;49.96
30302;BME280;17111;52.130;5.028;2023-03-26T04:25:46;100512.66;;;17.68;49.98
30302;BME280;17111;52.130;5.028;2023-03-26T04:28:27;100507.31;;;17.68;50.18
30302;BME280;17111;52.130;5.028;2023-03-26T04:30:57;100503.66;;;17.69;49.65
30302;BME280;17111;52.130;5.028;2023-03-26T04:33:28;100500.97;;;17.69;49.98
30302;BME280;17111;52.130;5.028;2023-03-26T04:35:55;100488.41;;;17.70;49.93
30302;BME280;17111;52.130;5.028;2023-03-26T04:38:29;100483.03;;;17.70;50.07
30302;BME280;17111;52.130;5.028;2023-03-26T04:40:59;100479.34;;;17.71;50.34
30302;BME280;17111;52.130;5.028;2023-03-26T04:43:29;100481.19;;;17.70;49.97
30302;BME280;17111;52.130;5.028;2023-03-26T04:45:56;100474.00;;;17.71;50.12
30302;BME280;17111;52.130;5.028;2023-03-26T04:48:23;100469.47;;;17.71;50.07
30302;BME280;17111;52.130;5.028;2023-03-26T04:50:49;100465.94;;;17.71;49.96
30302;BME280;17111;52.130;5.028;2023-03-26T04:53:17;100463.28;;;17.71;49.93
30302;BME280;17111;52.130;5.028;2023-03-26T04:55:56;100459.75;;;17.70;49.95
30302;BME280;17111;52.130;5.028;2023-03-26T04:58:25;100460.41;;;17.72;49.79
30302;BME280;17111;52.130;5.028;2023-03-26T05:00:58;100454.22;;;17.72;50.12
30302;BME280;17111;52.130;5.028;2023-03-26T05:03:36;100449.69;;;17.72;50.22
30302;BME280;17111;52.130;5.028;2023-03-26T05:06:04;100443.50;;;17.72;50.21
30302;BME280;17111;52.130;5.028;2023-03-26T05:08:31;100444.34;;;17.72;50.03
30302;BME280;17111;52.130;5.028;2023-03-26T05:10:58;100443.50;;;17.72;50.04
30302;BME280;17111;52.130;5.028;2023-03-26T05:13:24;100437.31;;;17.71;50.04
30302;BME280;17111;52.130;5.028;2023-03-26T05:15:51;100438.97;;;17.72;50.11
30302;BME280;17111;52.130;5.028;2023-03-26T05:18:18;100433.63;;;17.72;50.07
30302;BME280;17111;52.130;5.028;2023-03-26T05:20:44;100437.31;;;17.71;50.17
30302;BME280;17111;52.130;5.028;2023-03-26T05:23:11;100430.09;;;17.72;50.02
30302;BME280;17111;52.130;5.028;2023-03-26T05:25:38;100425.56;;;17.72;49.60
30302;BME280;17111;52.130;5.028;2023-03-26T05:28:04;100422.06;;;17.72;50.34
30302;BME280;17111;52.130;5.028;2023-03-26T05:30:31;100421.22;;;17.71;50.18
30302;BME280;17111;52.130;5.028;2023-03-26T05:32:58;100416.69;;;17.72;50.03
30302;BME280;17111;52.130;5.028;2023-03-26T05:35:24;100411.34;;;17.72;50.08
30302;BME280;17111;52.130;5.028;2023-03-26T05:37:51;100410.50;;;17.71;50.02
30302;BME280;17111;52.130;5.028;2023-03-26T05:40:18;100403.47;;;17.70;50.07
30302;BME280;17111;52.130;5.028;2023-03-26T05:42:45;100407.81;;;17.71;50.04
30302;BME280;17111;52.130;5.028;2023-03-26T05:45:13;100398.94;;;17.71;50.32
30302;BME280;17111;52.130;5.028;2023-03-26T05:47:40;100392.75;;;17.70;50.45
30302;BME280;17111;52.130;5.028;2023-03-26T05:50:08;100393.75;;;17.69;50.21
30302;BME280;17111;52.130;5.028;2023-03-26T05:52:35;100384.88;;;17.69;49.55
30302;BME280;17111;52.130;5.028;2023-03-26T05:55:02;100388.41;;;17.69;49.96
30302;BME280;17111;52.130;5.028;2023-03-26T05:57:29;100385.72;;;17.69;49.77
30302;BME280;17111;52.130;5.028;2023-03-26T05:59:56;100375.97;;;17.68;50.11
30302;BME280;17111;52.130;5.028;2023-03-26T06:02:23;100372.44;;;17.68;50.08
30302;BME280;17111;52.130;5.028;2023-03-26T06:04:49;100378.81;;;17.67;50.66
30302;BME280;17111;52.130;5.028;2023-03-26T06:07:17;100374.47;;;17.66;50.09
30302;BME280;17111;52.130;5.028;2023-03-26T06:09:44;100380.66;;;17.66;50.07
30302;BME280;17111;52.130;5.028;2023-03-26T06:12:11;100378.00;;;17.66;50.02
30302;BME280;17111;52.130;5.028;2023-03-26T06:14:37;100374.47;;;17.66;50.34
30302;BME280;17111;52.130;5.028;2023-03-26T06:17:04;100365.59;;;17.65;50.07
30302;BME280;17111;52.130;5.028;2023-03-26T06:19:31;100363.75;;;17.66;50.05
30302;BME280;17111;52.130;5.028;2023-03-26T06:21:57;100367.28;;;17.66;50.40
30302;BME280;17111;52.130;5.028;2023-03-26T06:24:24;100368.28;;;17.65;50.05
30302;BME280;17111;52.130;5.028;2023-03-26T06:26:50;100362.91;;;17.65;50.45
30302;BME280;17111;52.130;5.028;2023-03-26T06:29:18;100361.06;;;17.66;50.19
30302;BME280;17111;52.130;5.028;2023-03-26T06:31:45;100362.91;;;17.65;50.36
30302;BME280;17111;52.130;5.028;2023-03-26T06:34:11;100361.91;;;17.66;50.03
30302;BME280;17111;52.130;5.028;2023-03-26T06:36:38;100368.09;;;17.67;50.13
30302;BME280;17111;52.130;5.028;2023-03-26T06:39:04;100362.91;;;17.65;50.01
30302;BME280;17111;52.130;5.028;2023-03-26T06:41:34;100357.56;;;17.65;50.32
30302;BME280;17111;52.130;5.028;2023-03-26T06:44:00;100358.91;;;17.69;49.89
30302;BME280;17111;52.130;5.028;2023-03-26T06:46:27;100359.09;;;17.76;50.44
30302;BME280;17111;52.130;5.028;2023-03-26T06:48:54;100358.28;;;17.84;50.38
30302;BME280;17111;52.130;5.028;2023-03-26T06:51:21;100355.81;;;17.98;50.59
30302;BME280;17111;52.130;5.028;2023-03-26T06:53:47;100356.50;;;18.17;50.10
30302;BME280;17111;52.130;5.028;2023-03-26T06:56:14;100362.38;;;18.37;50.72
30302;BME280;17111;52.130;5.028;2023-03-26T06:58:40;100362.72;;;18.58;50.27
30302;BME280;17111;52.130;5.028;2023-03-26T07:01:07;100370.44;;;18.78;50.02
30302;BME280;17111;52.130;5.028;2023-03-26T07:03:33;100367.38;;;18.97;49.77
30302;BME280;17111;52.130;5.028;2023-03-26T07:06:00;100364.31;;;19.16;49.52
30302;BME280;17111;52.130;5.028;2023-03-26T07:08:27;100358.53;;;19.36;49.26
30302;BME280;17111;52.130;5.028;2023-03-26T07:10:53;100352.91;;;19.54;49.06
30302;BME280;17111;52.130;5.028;2023-03-26T07:13:20;100359.09;;;19.70;49.09
30302;BME280;17111;52.130;5.028;2023-03-26T07:15:47;100354.59;;;19.86;48.16
30302;BME280;17111;52.130;5.028;2023-03-26T07:18:14;100358.41;;;20.00;48.53
30302;BME280;17111;52.130;5.028;2023-03-26T07:20:43;100355.47;;;20.09;48.15
30302;BME280;17111;52.130;5.028;2023-03-26T07:23:10;100356.72;;;20.21;48.11
30302;BME280;17111;52.130;5.028;2023-03-26T07:25:38;100351.94;;;20.32;47.82
30302;BME280;17111;52.130;5.028;2023-03-26T07:28:33;100350.00;;;20.40;47.49
30302;BME280;17111;52.130;5.028;2023-03-26T07:31:31;100344.38;;;20.50;47.40
30302;BME280;17111;52.130;5.028;2023-03-26T07:34:10;100345.19;;;20.59;47.78
30302;BME280;17111;52.130;5.028;2023-03-26T07:36:53;100347.94;;;20.65;47.81
30302;BME280;17111;52.130;5.028;2023-03-26T07:47:49;100349.56;;;20.89;47.27
30302;BME280;17111;52.130;5.028;2023-03-26T07:50:21;100339.09;;;20.94;46.83
30302;BME280;17111;52.130;5.028;2023-03-26T07:52:48;100342.91;;;21.00;46.76
30302;BME280;17111;52.130;5.028;2023-03-26T07:55:15;100338.81;;;21.04;46.99
30302;BME280;17111;52.130;5.028;2023-03-26T07:58:00;100334.06;;;21.06;47.02
30302;BME280;17111;52.130;5.028;2023-03-26T08:01:07;100332.22;;;21.07;47.09
30302;BME280;17111;52.130;5.028;2023-03-26T08:07:14;100332.66;;;21.10;46.43
30302;BME280;17111;52.130;5.028;2023-03-26T08:10:07;100322.34;;;21.14;47.06
30302;BME280;17111;52.130;5.028;2023-03-26T08:20:51;100330.16;;;21.24;46.88
30302;BME280;17111;52.130;5.028;2023-03-26T08:23:26;100324.31;;;21.20;46.11
30302;BME280;17111;52.130;5.028;2023-03-26T08:26:04;100332.75;;;21.17;45.99
30302;BME280;17111;52.130;5.028;2023-03-26T08:28:50;100328.97;;;21.11;46.24
30302;BME280;17111;52.130;5.028;2023-03-26T08:31:29;100325.97;;;21.06;46.17
30302;BME280;17111;52.130;5.028;2023-03-26T08:33:58;100328.22;;;21.03;46.34
30302;BME280;17111;52.130;5.028;2023-03-26T08:36:25;100323.38;;;20.98;46.40
30302;BME280;17111;52.130;5.028;2023-03-26T08:38:53;100330.34;;;20.92;45.88
30302;BME280;17111;52.130;5.028;2023-03-26T08:47:21;100333.56;;;20.73;46.43
30302;BME280;17111;52.130;5.028;2023-03-26T08:52:46;100334.88;;;20.62;46.81
30302;BME280;17111;52.130;5.028;2023-03-26T08:55:19;100347.03;;;20.58;46.36
30302;BME280;17111;52.130;5.028;2023-03-26T08:58:04;100341.34;;;20.53;46.50
30302;BME280;17111;52.130;5.028;2023-03-26T09:03:12;100347.78;;;20.44;46.57
30302;BME280;17111;52.130;5.028;2023-03-26T09:21:15;100342.41;;;20.21;47.61
30302;BME280;17111;52.130;5.028;2023-03-26T09:33:11;100339.78;;;20.13;48.32
30302;BME280;17111;52.130;5.028;2023-03-26T09:39:01;100344.00;;;20.15;48.83
30302;BME280;17111;52.130;5.028;2023-03-26T09:41:41;100349.38;;;20.15;48.52
30302;BME280;17111;52.130;5.028;2023-03-26T09:44:25;100346.69;;;20.15;49.14
30302;BME280;17111;52.130;5.028;2023-03-26T09:52:57;100362.81;;;20.15;48.54
30302;BME280;17111;52.130;5.028;2023-03-26T10:01:29;100367.78;;;20.27;48.78
30302;BME280;17111;52.130;5.028;2023-03-26T10:04:03;100366.41;;;20.31;48.20
30302;BME280;17111;52.130;5.028;2023-03-26T10:06:38;100364.22;;;20.34;49.13
30302;BME280;17111;52.130;5.028;2023-03-26T10:15:23;100375.75;;;20.43;48.57
30302;BME280;17111;52.130;5.028;2023-03-26T10:21:04;100380.41;;;20.49;48.73
30302;BME280;17111;52.130;5.028;2023-03-26T10:38:23;100393.16;;;20.55;48.56
30302;BME280;17111;52.130;5.028;2023-03-26T10:41:12;100393.31;;;20.54;48.43
30302;BME280;17111;52.130;5.028;2023-03-26T10:46:56;100404.47;;;20.51;47.86
30302;BME280;17111;52.130;5.028;2023-03-26T10:52:08;100410.34;;;20.46;48.39
30302;BME280;17111;52.130;5.028;2023-03-26T10:54:47;100412.41;;;20.44;48.12
30302;BME280;17111;52.130;5.028;2023-03-26T10:57:20;100415.28;;;20.42;47.92
30302;BME280;17111;52.130;5.028;2023-03-26T10:59:48;100415.44;;;20.41;47.88
30302;BME280;17111;52.130;5.028;2023-03-26T11:02:35;100422.41;;;20.35;48.22
30302;BME280;17111;52.130;5.028;2023-03-26T11:08:03;100425.00;;;20.20;48.54
30302;BME280;17111;52.130;5.028;2023-03-26T11:19:24;100433.53;;;20.01;48.12
30302;BME280;17111;52.130;5.028;2023-03-26T11:22:10;100440.94;;;19.99;48.71
30302;BME280;17111;52.130;5.028;2023-03-26T11:25:15;100444.00;;;19.96;48.82
30302;BME280;17111;52.130;5.028;2023-03-26T11:31:11;100448.34;;;19.97;48.69
30302;BME280;17111;52.130;5.028;2023-03-26T11:33:47;100455.88;;;20.02;48.15
30302;BME280;17111;52.130;5.028;2023-03-26T11:36:19;100453.03;;;20.03;48.64
30302;BME280;17111;52.130;5.028;2023-03-26T11:38:52;100458.41;;;20.03;48.34
30302;BME280;17111;52.130;5.028;2023-03-26T11:41:23;100465.28;;;20.06;48.46
30302;BME280;17111;52.130;5.028;2023-03-26T11:44:18;100465.47;;;20.04;48.71
30302;BME280;17111;52.130;5.028;2023-03-26T11:46:47;100460.56;;;20.08;49.26
30302;BME280;17111;52.130;5.028;2023-03-26T11:49:17;100470.31;;;20.09;48.91
30302;BME280;17111;52.130;5.028;2023-03-26T11:51:46;100473.00;;;20.09;49.19
30302;BME280;17111;52.130;5.028;2023-03-26T11:54:14;100469.28;;;20.10;48.83
30302;BME280;17111;52.130;5.028;2023-03-26T11:59:42;100477.22;;;20.11;48.61
30302;BME280;17111;52.130;5.028;2023-03-26T12:02:26;100477.84;;;20.13;49.33
30302;BME280;17111;52.130;5.028;2023-03-26T12:07:53;100484.75;;;20.16;49.09
30302;BME280;17111;52.130;5.028;2023-03-26T12:10:38;100481.88;;;20.17;49.09
30302;BME280;17111;52.130;5.028;2023-03-26T12:15:46;100481.34;;;20.22;49.04
30302;BME280;17111;52.130;5.028;2023-03-26T12:18:22;100483.69;;;20.25;48.75
30302;BME280;17111;52.130;5.028;2023-03-26T12:21:13;100483.63;;;20.33;48.55
30302;BME280;17111;52.130;5.028;2023-03-26T12:23:59;100481.56;;;20.43;48.42
30302;BME280;17111;52.130;5.028;2023-03-26T12:26:35;100486.72;;;20.53;48.38
30302;BME280;17111;52.130;5.028;2023-03-26T12:29:09;100481.97;;;20.63;48.94
30302;BME280;17111;52.130;5.028;2023-03-26T12:32:12;100492.00;;;20.69;48.29
30302;BME280;17111;52.130;5.028;2023-03-26T12:34:39;100490.47;;;20.75;48.38
30302;BME280;17111;52.130;5.028;2023-03-26T12:37:34;100499.19;;;20.77;48.45
30302;BME280;17111;52.130;5.028;2023-03-26T12:40:28;100501.53;;;20.80;47.98
30302;BME280;17111;52.130;5.028;2023-03-26T12:42:55;100501.53;;;20.80;47.59
30302;BME280;17111;52.130;5.028;2023-03-26T12:45:42;100514.63;;;20.83;48.21
30302;BME280;17111;52.130;5.028;2023-03-26T12:48:12;100508.41;;;20.83;47.73
30302;BME280;17111;52.130;5.028;2023-03-26T12:50:52;100512.78;;;20.84;47.68
30302;BME280;17111;52.130;5.028;2023-03-26T12:56:28;100517.50;;;20.82;47.43
30302;BME280;17111;52.130;5.028;2023-03-26T12:59:31;100524.09;;;20.79;47.44
30302;BME280;17111;52.130;5.028;2023-03-26T13:02:13;100524.94;;;20.80;47.50
30302;BME280;17111;52.130;5.028;2023-03-26T13:18:54;100537.63;;;20.71;47.06
30302;BME280;17111;52.130;5.028;2023-03-26T13:21:28;100543.16;;;20.69;47.25
30302;BME280;17111;52.130;5.028;2023-03-26T13:24:15;100539.00;;;20.67;46.91
30302;BME280;17111;52.130;5.028;2023-03-26T13:27:25;100550.59;;;20.67;47.00
30302;BME280;17111;52.130;5.028;2023-03-26T13:47:34;100567.97;;;20.88;48.06
30302;BME280;17111;52.130;5.028;2023-03-26T13:50:06;100575.69;;;20.91;48.16
30302;BME280;17111;52.130;5.028;2023-03-26T13:53:10;100576.69;;;20.90;48.30
30302;BME280;17111;52.130;5.028;2023-03-26T13:55:59;100577.19;;;20.93;48.40
30302;BME280;17111;52.130;5.028;2023-03-26T13:58:49;100583.41;;;20.94;48.61
30302;BME280;17111;52.130;5.028;2023-03-26T14:01:25;100593.19;;;20.95;48.66
30302;BME280;17111;52.130;5.028;2023-03-26T14:06:53;100599.22;;;20.97;47.99
30302;BME280;17111;52.130;5.028;2023-03-26T14:09:36;100592.44;;;21.01;48.51
30302;BME280;17111;52.130;5.028;2023-03-26T14:12:20;100585.13;;;21.10;48.30
30302;BME280;17111;52.130;5.028;2023-03-26T14:15:02;100597.25;;;21.14;47.80
30302;BME280;17111;52.130;5.028;2023-03-26T14:17:49;100604.78;;;21.18;47.92
30302;BME280;17111;52.130;5.028;2023-03-26T14:23:24;100611.97;;;21.26;47.68
30302;BME280;17111;52.130;5.028;2023-03-26T14:26:25;100616.38;;;21.27;47.58
30302;BME280;17111;52.130;5.028;2023-03-26T14:31:37;100636.72;;;21.30;47.06
30302;BME280;17111;52.130;5.028;2023-03-26T14:45:55;100654.06;;;21.35;46.55
30302;BME280;17111;52.130;5.028;2023-03-26T14:53:32;100669.72;;;21.32;45.77
30302;BME280;17111;52.130;5.028;2023-03-26T15:01:22;100676.66;;;21.26;45.95
30302;BME280;17111;52.130;5.028;2023-03-26T15:07:28;100679.75;;;21.23;45.90
30302;BME280;17111;52.130;5.028;2023-03-26T15:14:02;100691.03;;;21.18;45.53
30302;BME280;17111;52.130;5.028;2023-03-26T15:16:15;100698.81;;;21.13;45.54
30302;BME280;17111;52.130;5.028;2023-03-26T15:19:02;100703.22;;;21.06;45.25
30302;BME280;17111;52.130;5.028;2023-03-26T15:30:10;100722.41;;;20.80;45.70
30302;BME280;17111;52.130;5.028;2023-03-26T15:36:03;100731.66;;;20.78;45.42
30302;BME280;17111;52.130;5.028;2023-03-26T15:51:13;100761.56;;;20.99;46.25
30302;BME280;17111;52.130;5.028;2023-03-26T16:01:58;100798.31;;;21.31;45.15
30302;BME280;17111;52.130;5.028;2023-03-26T16:18:44;100819.28;;;21.52;43.95
30302;BME280;17111;52.130;5.028;2023-03-26T16:48:24;100893.91;;;21.04;44.85
30302;BME280;17111;52.130;5.028;2023-03-26T16:51:43;100894.59;;;20.98;44.18
30302;BME280;17111;52.130;5.028;2023-03-26T16:57:22;100903.41;;;20.84;44.66
30302;BME280;17111;52.130;5.028;2023-03-26T17:02:54;100913.84;;;20.62;44.96
30302;BME280;17111;52.130;5.028;2023-03-26T17:05:48;100926.97;;;20.57;45.07
30302;BME280;17111;52.130;5.028;2023-03-26T17:11:53;100929.28;;;20.44;45.14
30302;BME280;17111;52.130;5.028;2023-03-26T17:14:50;100934.34;;;20.47;45.45
30302;BME280;17111;52.130;5.028;2023-03-26T17:17:41;100947.53;;;20.58;45.94
30302;BME280;17111;52.130;5.028;2023-03-26T17:22:50;100951.03;;;20.83;45.39
30302;BME280;17111;52.130;5.028;2023-03-26T17:25:59;100965.00;;;20.95;45.28
30302;BME280;17111;52.130;5.028;2023-03-26T17:31:31;100965.50;;;21.15;44.29
30302;BME280;17111;52.130;5.028;2023-03-26T17:37:30;100977.78;;;21.34;44.69
30302;BME280;17111;52.130;5.028;2023-03-26T17:42:32;100982.16;;;21.43;44.65
30302;BME280;17111;52.130;5.028;2023-03-26T17:45:22;100987.69;;;21.41;44.33
30302;BME280;17111;52.130;5.028;2023-03-26T17:48:16;101001.88;;;21.43;44.29
30302;BME280;17111;52.130;5.028;2023-03-26T17:50:53;101005.41;;;21.44;44.43
30302;BME280;17111;52.130;5.028;2023-03-26T17:53:28;101006.41;;;21.43;44.34
30302;BME280;17111;52.130;5.028;2023-03-26T17:55:59;101016.34;;;21.42;44.51
30302;BME280;17111;52.130;5.028;2023-03-26T17:58:36;101020.06;;;21.41;44.66
30302;BME280;17111;52.130;5.028;2023-03-26T18:01:36;101028.16;;;21.41;44.64
30302;BME280;17111;52.130;5.028;2023-03-26T18:04:34;101044.16;;;21.43;44.66
30302;BME280;17111;52.130;5.028;2023-03-26T18:18:24;101066.38;;;21.29;44.59
30302;BME280;17111;52.130;5.028;2023-03-26T18:20:57;101069.94;;;21.21;44.82
30302;BME280;17111;52.130;5.028;2023-03-26T18:23:39;101078.19;;;21.19;44.42
30302;BME280;17111;52.130;5.028;2023-03-26T18:28:42;101092.66;;;21.18;44.25
30302;BME280;17111;52.130;5.028;2023-03-26T18:31:23;101096.72;;;21.14;44.45
30302;BME280;17111;52.130;5.028;2023-03-26T18:33:54;101102.47;;;21.11;44.72
30302;BME280;17111;52.130;5.028;2023-03-26T18:36:25;101107.66;;;21.05;44.80
30302;BME280;17111;52.130;5.028;2023-03-26T18:38:57;101113.88;;;20.97;45.40
30302;BME280;17111;52.130;5.028;2023-03-26T18:41:35;101122.78;;;20.89;45.30
30302;BME280;17111;52.130;5.028;2023-03-26T18:44:13;101137.09;;;20.82;45.17
30302;BME280;17111;52.130;5.028;2023-03-26T18:46:41;101133.22;;;20.76;45.57
30302;BME280;17111;52.130;5.028;2023-03-26T18:49:12;101133.84;;;20.70;45.73